Time;durP1;ratioP1;P1;durP2;ratioP2;P2;SDS_P1;SDS_P2;PMS_P1;PMS_P2;Temp;Humidity;BMP_temperature;BMP_pressure;BME280_temperature;BME280_humidity;BME280_pressure;Samples;Min_cycle;Max_cycle;Signal;HPM_P1;HPM_P2
2021/03/28 07:01:31;;;;;;;;;;;;;;;;;;5738694;23;1831;-66
2021/03/28 07:04:15;;;;;;;;;;;;;;;;;;4928451;29;909;-69
2021/03/28 07:06:48;;;;;;;;;;;;;;;;;;4920468;29;1915;-69
2021/03/28 07:09:19;;;;;;;;;;;;;;;;;;4920299;29;890;-70
2021/03/28 07:11:53;;;;;;;;;;;;;;;;;;4920330;29;1299;-69
2021/03/28 07:14:37;;;;;;;;;;;;;;;;;;4918217;29;1261;-69
2021/03/28 07:17:20;;;;;;;;;;;;;;;;;;4920233;29;916;-70
2021/03/28 07:20:04;;;;;;;;;;;;;;;;;;4920342;29;838;-66
2021/03/28 07:22:36;;;;;;;;;;;;;;;;;;4920227;29;1299;-67
2021/03/28 07:25:01;;;;;;;;;;;;;;;;;;4918631;29;1234;-67
2021/03/28 07:27:47;;;;;;;;;;;;;;;;;;4918520;29;1961;-67
2021/03/28 07:30:24;;;;;;;;;;;;;;;;;;4911847;29;1090;-67
2021/03/28 07:33:08;;;;;;;;;;;;;;;;;;4919742;29;1328;-67
2021/03/28 07:35:42;;;;;;;;;;;;;;;;;;4919928;29;1116;-67
2021/03/28 07:38:16;;;;;;;;;;;;;;;;;;4919791;29;1028;-67
2021/03/28 07:40:51;;;;;;;;;;;;;;;;;;4918450;29;1326;-67
2021/03/28 07:43:45;;;;;;;;;;;;;;;;;;4919597;29;985;-66
2021/03/28 07:46:29;;;;;;;;;;;;;;;;;;4918417;29;1970;-67
2021/03/28 07:48:54;;;;;;;;;;;;;;;;;;4918266;29;1170;-67
2021/03/28 07:51:38;;;;;;;;;;;;;;;;;;4918237;29;1288;-67
2021/03/28 07:54:22;;;;;;;;;;;;;;;;;;4919137;29;977;-67
2021/03/28 07:56:53;;;;;;;;;;;;;;;;;;4918603;29;838;-67
2021/03/28 07:59:25;;;;;;;;;;;;;;;;;;4919467;29;977;-67
2021/03/28 08:01:51;;;;;;;;;;;;;;;;;;4919112;29;1323;-67
2021/03/28 08:04:29;;;;;;;;;;;;;;;;;;4917960;29;1438;-67
2021/03/28 08:07:03;;;;;;;;;;;;;;;;;;4919650;29;1968;-67
2021/03/28 08:09:47;;;;;;;;;;;;;;;;;;4918032;29;1511;-67
2021/03/28 08:12:21;;;;;;;;;;;;;;;;;;4918256;29;1551;-67
2021/03/28 08:15:03;;;;;;;;;;;;;;;;;;4919030;29;869;-67
2021/03/28 08:17:32;;;;;;;;;;;;;;;;;;4918810;29;961;-67
2021/03/28 08:20:00;;;;;;;;;;;;;;;;;;4917834;29;1421;-67
2021/03/28 08:22:52;;;;;;;;;;;;;;;;;;4917757;29;1354;-67
2021/03/28 08:25:31;;;;;;;;;;;;;;;;;;4902632;29;1219;-67
2021/03/28 08:28:15;;;;;;;;;;;;;;;;;;4917750;29;1894;-68
2021/03/28 08:30:43;;;;;;;;;;;;;;;;;;4918708;29;1296;-67
2021/03/28 08:33:27;;;;;;;;;;;;;;;;;;4918755;29;822;-67
2021/03/28 08:35:53;;;;;;;;;;;;;;;;;;4917546;29;1209;-67
2021/03/28 08:38:30;;;;;;;;;;;;;;;;;;4918848;29;898;-68
2021/03/28 08:41:01;;;;;;;;;;;;;;;;;;4918500;29;1402;-68
2021/03/28 08:43:32;;;;;;;;;;;;;;;;;;4917364;29;909;-68
2021/03/28 08:46:09;;;;;;;;;;;;;;;;;;4917287;29;1907;-67
2021/03/28 08:48:43;;;;;;;;;;;;;;;;;;4917374;29;866;-67
2021/03/28 08:51:14;;;;;;;;;;;;;;;;;;4918406;29;1343;-67
2021/03/28 08:53:58;;;;;;;;;;;;;;;;;;4918508;29;839;-67
2021/03/28 08:56:23;;;;;;;;;;;;;;;;;;4917428;29;1327;-67
2021/03/28 08:58:54;;;;;;;;;;;;;;;;;;4918615;29;987;-68
2021/03/28 09:01:26;;;;;;;;;;;;;;;;;;4918447;29;1390;-67
2021/03/28 09:04:10;;;;;;;;;;;;;;;;;;4918438;29;1083;-68
2021/03/28 09:06:51;;;;;;;;;;;;;;;;;;4918079;29;1973;-67
2021/03/28 09:09:22;;;;;;;;;;;;;;;;;;4918419;29;849;-67
2021/03/28 09:11:48;;;;;;;;;;;;;;;;;;4917072;29;1422;-67
2021/03/28 09:14:33;;;;;;;;;;;;;;;;;;4917981;29;822;-68
2021/03/28 09:17:27;;;;;;;;;;;;;;;;;;4918574;29;849;-67
2021/03/28 09:19:55;;;;;;;;;;;;;;;;;;4883486;29;1137;-67
2021/03/28 09:22:29;;;;;;;;;;;;;;;;;;4918195;29;1288;-69
2021/03/28 09:24:58;;;;;;;;;;;;;;;;;;4917656;29;838;-68
2021/03/28 09:27:30;;;;;;;;;;;;;;;;;;4916940;29;1962;-67
2021/03/28 09:30:01;;;;;;;;;;;;;;;;;;4916882;29;1317;-68
2021/03/28 09:32:29;;;;;;;;;;;;;;;;;;4918199;29;1291;-69
2021/03/28 09:35:05;;;;;;;;;;;;;;;;;;4917960;29;814;-68
2021/03/28 09:37:30;;;;;;;;;;;;;;;;;;4919355;29;1246;-68
2021/03/28 09:40:02;;;;;;;;;;;;;;;;;;4920870;29;1579;-69
2021/03/28 09:42:40;;;;;;;;;;;;;;;;;;4921775;29;1331;-67
2021/03/28 09:45:20;;;;;;;;;;;;;;;;;;4921607;29;858;-68
2021/03/28 09:47:54;;;;;;;;;;;;;;;;;;4921818;29;1898;-68
2021/03/28 09:50:40;;;;;;;;;;;;;;;;;;4920553;29;894;-68
2021/03/28 09:53:26;;;;;;;;;;;;;;;;;;4901317;29;1365;-68
2021/03/28 09:56:03;;;;;;;;;;;;;;;;;;4921815;29;799;-68
2021/03/28 09:58:41;;;;;;;;;;;;;;;;;;4921676;29;1126;-68
2021/03/28 10:01:09;;;;;;;;;;;;;;;;;;4920250;29;1436;-68
2021/03/28 10:03:50;;;;;;;;;;;;;;;;;;4921429;29;902;-68
2021/03/28 10:06:18;;;;;;;;;;;;;;;;;;4920860;29;1967;-68
2021/03/28 10:08:45;;;;;;;;;;;;;;;;;;4920413;29;1206;-68
2021/03/28 10:11:45;;;;;;;;;;;;;;;;;;4920338;29;1355;-68
2021/03/28 10:14:29;;;;;;;;;;;;;;;;;;4881492;29;1308;-68
2021/03/28 10:17:13;;;;;;;;;;;;;;;;;;4916787;29;1437;-67
2021/03/28 10:19:40;;;;;;;;;;;;;;;;;;4919839;29;826;-67
2021/03/28 10:22:24;;;;;;;;;;;;;;;;;;4919899;29;1351;-67
2021/03/28 10:24:52;;;;;;;;;;;;;;;;;;4920911;29;993;-68
2021/03/28 10:27:36;;;;;;;;;;;;;;;;;;4920960;29;1968;-69
2021/03/28 10:30:11;;;;;;;;;;;;;;;;;;4921095;29;1193;-68
2021/03/28 10:32:42;;;;;;;;;;;;;;;;;;4919893;29;1397;-67
2021/03/28 10:35:10;;;;;;;;;;;;;;;;;;4920884;29;882;-67
2021/03/28 10:37:54;;;;;;;;;;;;;;;;;;4920872;29;865;-68
2021/03/28 10:40:38;;;;;;;;;;;;;;;;;;4921006;29;893;-68
2021/03/28 10:43:03;;;;;;;;;;;;;;;;;;4919687;29;1206;-66
2021/03/28 10:45:28;;;;;;;;;;;;;;;;;;4919516;29;1661;-68
2021/03/28 10:48:18;;;;;;;;;;;;;;;;;;4919300;29;1894;-68
2021/03/28 10:50:50;;;;;;;;;;;;;;;;;;4920876;29;1308;-68
2021/03/28 10:53:34;;;;;;;;;;;;;;;;;;4919156;29;1338;-68
2021/03/28 10:56:24;;;;;;;;;;;;;;;;;;4920611;29;774;-68
2021/03/28 10:59:06;;;;;;;;;;;;;;;;;;4920622;29;818;-68
2021/03/28 11:01:56;;;;;;;;;;;;;;;;;;4919422;29;1299;-67
2021/03/28 11:04:21;;;;;;;;;;;;;;;;;;4920112;29;830;-68
2021/03/28 11:06:49;;;;;;;;;;;;;;;;;;4919158;29;1906;-67
2021/03/28 11:09:17;;;;;;;;;;;;;;;;;;4919486;29;1335;-68
2021/03/28 11:12:01;;;;;;;;;;;;;;;;;;4920314;29;1402;-67
2021/03/28 11:14:45;;;;;;;;;;;;;;;;;;4919819;29;980;-67
2021/03/28 11:17:10;;;;;;;;;;;;;;;;;;4920203;29;937;-67
2021/03/28 11:19:54;;;;;;;;;;;;;;;;;;4920258;29;925;-67
2021/03/28 11:22:34;;;;;;;;;;;;;;;;;;4920101;29;1295;-68
2021/03/28 11:25:05;;;;;;;;;;;;;;;;;;4919740;29;791;-67
2021/03/28 11:27:55;;;;;;;;;;;;;;;;;;4919860;29;1969;-68
2021/03/28 11:30:20;;;;;;;;;;;;;;;;;;4918734;29;1198;-68
2021/03/28 11:32:49;;;;;;;;;;;;;;;;;;4918662;29;1402;-67
2021/03/28 11:35:26;;;;;;;;;;;;;;;;;;4919725;29;1128;-68
2021/03/28 11:37:54;;;;;;;;;;;;;;;;;;4918839;29;834;-67
2021/03/28 11:40:34;;;;;;;;;;;;;;;;;;4918572;29;1202;-68
2021/03/28 11:43:05;;;;;;;;;;;;;;;;;;4919705;29;897;-67
2021/03/28 11:45:37;;;;;;;;;;;;;;;;;;4918337;29;1377;-67
2021/03/28 11:48:05;;;;;;;;;;;;;;;;;;4918265;29;1899;-67
2021/03/28 11:50:33;;;;;;;;;;;;;;;;;;4920219;29;1387;-67
2021/03/28 11:53:02;;;;;;;;;;;;;;;;;;4919711;29;886;-67
2021/03/28 11:55:36;;;;;;;;;;;;;;;;;;4919721;29;1059;-67
2021/03/28 11:58:07;;;;;;;;;;;;;;;;;;4918122;29;1757;-67
2021/03/28 12:00:38;;;;;;;;;;;;;;;;;;4917241;29;1346;-68
2021/03/28 12:03:19;;;;;;;;;;;;;;;;;;4918157;29;1353;-67
2021/03/28 12:05:58;;;;;;;;;;;;;;;;;;4918197;29;1588;-68
2021/03/28 12:08:34;;;;;;;;;;;;;;;;;;4919147;29;1966;-68
2021/03/28 12:11:18;;;;;;;;;;;;;;;;;;4917840;29;1345;-67
2021/03/28 12:13:48;;;;;;;;;;;;;;;;;;4919264;29;930;-67
2021/03/28 12:16:14;;;;;;;;;;;;;;;;;;4919375;29;816;-69
2021/03/28 12:18:44;;;;;;;;;;;;;;;;;;4917898;29;1234;-74
2021/03/28 12:21:17;;;;;;;;;;;;;;;;;;4917860;29;1454;-62
2021/03/28 12:23:48;;;;;;;;;;;;;;;;;;4918823;29;1269;-68
2021/03/28 12:26:32;;;;;;;;;;;;;;;;;;4917907;29;1891;-67
2021/03/28 12:29:01;;;;;;;;;;;;;;;;;;4919167;29;820;-67
2021/03/28 12:31:29;;;;;;;;;;;;;;;;;;4918840;29;1368;-66
2021/03/28 12:34:13;;;;;;;;;;;;;;;;;;4917435;29;1245;-67
2021/03/28 12:36:50;;;;;;;;;;;;;;;;;;4918788;29;917;-66
2021/03/28 12:39:18;;;;;;;;;;;;;;;;;;4918848;29;877;-66
2021/03/28 12:42:02;;;;;;;;;;;;;;;;;;4918770;29;1256;-63
2021/03/28 12:44:36;;;;;;;;;;;;;;;;;;4917295;29;1225;-65
2021/03/28 12:47:18;;;;;;;;;;;;;;;;;;4917407;29;1895;-66
2021/03/28 12:49:54;;;;;;;;;;;;;;;;;;4918486;29;913;-64
2021/03/28 12:52:23;;;;;;;;;;;;;;;;;;4918687;29;1316;-64
2021/03/28 12:54:49;;;;;;;;;;;;;;;;;;4917160;29;819;-64
2021/03/28 12:57:32;;;;;;;;;;;;;;;;;;4918511;29;904;-62
2021/03/28 12:59:58;;;;;;;;;;;;;;;;;;4917209;29;875;-63
2021/03/28 13:02:28;;;;;;;;;;;;;;;;;;4918249;29;1415;-63
2021/03/28 13:04:55;;;;;;;;;;;;;;;;;;4918533;29;849;-64
2021/03/28 13:07:32;;;;;;;;;;;;;;;;;;4918697;29;1969;-62
2021/03/28 13:09:58;;;;;;;;;;;;;;;;;;4917025;29;1222;-63
2021/03/28 13:12:25;;;;;;;;;;;;;;;;;;4918219;29;1491;-64
2021/03/28 13:14:51;;;;;;;;;;;;;;;;;;4916964;29;922;-63
2021/03/28 13:17:25;;;;;;;;;;;;;;;;;;4916970;29;834;-65
2021/03/28 13:19:53;;;;;;;;;;;;;;;;;;4918468;29;834;-63
2021/03/28 13:22:24;;;;;;;;;;;;;;;;;;4918280;29;1410;-63
2021/03/28 13:24:50;;;;;;;;;;;;;;;;;;4918083;29;823;-64
2021/03/28 13:27:20;;;;;;;;;;;;;;;;;;4918205;29;1890;-63
2021/03/28 13:29:54;;;;;;;;;;;;;;;;;;4917975;29;934;-64
2021/03/28 13:32:24;;;;;;;;;;;;;;;;;;4916864;29;1682;-64
2021/03/28 13:34:56;;;;;;;;;;;;;;;;;;4918163;29;896;-63
2021/03/28 13:37:24;;;;;;;;;;;;;;;;;;4918091;29;839;-63
2021/03/28 13:40:18;;;;;;;;;;;;;;;;;;4917908;29;888;-63
2021/03/28 13:43:03;;;;;;;;;;;;;;;;;;4918089;29;1413;-64
2021/03/28 13:45:38;;;;;;;;;;;;;;;;;;4918022;29;857;-62
2021/03/28 13:48:06;;;;;;;;;;;;;;;;;;4918048;29;1896;-63
2021/03/28 13:50:35;;;;;;;;;;;;;;;;;;4916620;29;1324;-62
2021/03/28 13:53:06;;;;;;;;;;;;;;;;;;4918207;29;811;-62
2021/03/28 13:55:42;;;;;;;;;;;;;;;;;;4916828;29;1211;-63
2021/03/28 13:58:09;;;;;;;;;;;;;;;;;;4918057;29;893;-62
2021/03/28 14:00:35;;;;;;;;;;;;;;;;;;4916385;29;1323;-62
2021/03/28 14:03:13;;;;;;;;;;;;;;;;;;4916702;29;957;-63
2021/03/28 14:05:40;;;;;;;;;;;;;;;;;;4917784;29;972;-62
2021/03/28 14:08:11;;;;;;;;;;;;;;;;;;4916339;29;1890;-62
2021/03/28 14:10:36;;;;;;;;;;;;;;;;;;4917806;29;1438;-63
2021/03/28 14:13:20;;;;;;;;;;;;;;;;;;4917741;29;846;-63
2021/03/28 14:15:47;;;;;;;;;;;;;;;;;;4917788;29;834;-63
2021/03/28 14:18:13;;;;;;;;;;;;;;;;;;4917872;29;929;-62
2021/03/28 14:20:46;;;;;;;;;;;;;;;;;;4917636;29;1275;-63
2021/03/28 14:23:11;;;;;;;;;;;;;;;;;;4918088;29;872;-63
2021/03/28 14:25:40;;;;;;;;;;;;;;;;;;4921302;29;830;-63
2021/03/28 14:28:23;;;;;;;;;;;;;;;;;;4921134;29;1890;-63
2021/03/28 14:30:57;;;;;;;;;;;;;;;;;;4921083;29;1280;-63
2021/03/28 14:33:26;;;;;;;;;;;;;;;;;;4920939;29;886;-64
2021/03/28 14:35:57;;;;;;;;;;;;;;;;;;4921050;29;1012;-63
2021/03/28 14:38:33;;;;;;;;;;;;;;;;;;4920945;29;810;-64
2021/03/28 14:41:05;;;;;;;;;;;;;;;;;;4920712;29;1324;-63
2021/03/28 14:43:31;;;;;;;;;;;;;;;;;;4920807;29;842;-63
2021/03/28 14:46:12;;;;;;;;;;;;;;;;;;4919593;29;850;-63
2021/03/28 14:48:55;;;;;;;;;;;;;;;;;;4920781;29;872;-64
2021/03/28 14:51:32;;;;;;;;;;;;;;;;;;4919477;29;1359;-63
2021/03/28 14:54:04;;;;;;;;;;;;;;;;;;4920358;29;1064;-62
2021/03/28 14:56:48;;;;;;;;;;;;;;;;;;4919600;29;1526;-62
2021/03/28 14:59:28;;;;;;;;;;;;;;;;;;4919517;29;1210;-62
2021/03/28 15:02:01;;;;;;;;;;;;;;;;;;4920602;29;1295;-61
2021/03/28 15:04:32;;;;;;;;;;;;;;;;;;4919455;29;1000;-67
2021/03/28 15:07:06;;;;;;;;;;;;;;;;;;4920413;29;1974;-67
2021/03/28 15:09:31;;;;;;;;;;;;;;;;;;4920538;29;878;-67
2021/03/28 15:12:00;;;;;;;;;;;;;;;;;;4920446;29;1420;-67
2021/03/28 15:14:29;;;;;;;;;;;;;;;;;;4903072;29;1176;-69
2021/03/28 15:17:13;;;;;;;;;;;;;;;;;;4919076;29;1254;-71
2021/03/28 15:19:47;;;;;;;;;;;;;;;;;;4920282;29;965;-68
2021/03/28 15:22:18;;;;;;;;;;;;;;;;;;4919824;29;1279;-68
2021/03/28 15:24:47;;;;;;;;;;;;;;;;;;4919845;29;799;-67
2021/03/28 15:27:18;;;;;;;;;;;;;;;;;;4920036;29;1964;-69
2021/03/28 15:30:16;;;;;;;;;;;;;;;;;;4919128;29;1123;-69
2021/03/28 15:33:00;;;;;;;;;;;;;;;;;;4897864;29;1358;-68
2021/03/28 15:35:29;;;;;;;;;;;;;;;;;;4918369;29;1439;-67
2021/03/28 15:38:15;;;;;;;;;;;;;;;;;;4919982;29;897;-67
2021/03/28 15:40:46;;;;;;;;;;;;;;;;;;4918845;29;1358;-67
2021/03/28 15:43:18;;;;;;;;;;;;;;;;;;4920052;29;838;-68
2021/03/28 15:46:06;;;;;;;;;;;;;;;;;;4919475;29;1056;-69
2021/03/28 15:48:37;;;;;;;;;;;;;;;;;;4901295;29;1898;-66
2021/03/28 15:51:24;;;;;;;;;;;;;;;;;;4919776;29;1272;-67
2021/03/28 15:53:49;;;;;;;;;;;;;;;;;;4918382;29;1370;-66
2021/03/28 15:56:24;;;;;;;;;;;;;;;;;;4918361;29;1265;-66
2021/03/28 15:59:04;;;;;;;;;;;;;;;;;;4919774;29;874;-67
2021/03/28 16:01:48;;;;;;;;;;;;;;;;;;4918292;29;1443;-67
2021/03/28 16:04:17;;;;;;;;;;;;;;;;;;4918129;29;1302;-67
2021/03/28 16:07:01;;;;;;;;;;;;;;;;;;4918158;29;1966;-66
2021/03/28 16:09:45;;;;;;;;;;;;;;;;;;4917946;29;1211;-67
2021/03/28 16:12:29;;;;;;;;;;;;;;;;;;4919252;29;1355;-67
2021/03/28 16:15:06;;;;;;;;;;;;;;;;;;4918343;29;1578;-67
2021/03/28 16:17:32;;;;;;;;;;;;;;;;;;4919211;29;1075;-66
2021/03/28 16:20:16;;;;;;;;;;;;;;;;;;4918058;29;1222;-67
2021/03/28 16:23:05;;;;;;;;;;;;;;;;;;4917804;29;1398;-67
2021/03/28 16:25:49;;;;;;;;;;;;;;;;;;4918298;29;1111;-67
2021/03/28 16:28:18;;;;;;;;;;;;;;;;;;4917835;29;1964;-67
2021/03/28 16:30:49;;;;;;;;;;;;;;;;;;4918108;29;1416;-66
2021/03/28 16:33:14;;;;;;;;;;;;;;;;;;4918743;29;1036;-67
2021/03/28 16:35:43;;;;;;;;;;;;;;;;;;4919042;29;889;-68
2021/03/28 16:38:08;;;;;;;;;;;;;;;;;;4919028;29;889;-66
2021/03/28 16:40:38;;;;;;;;;;;;;;;;;;4917681;29;1406;-67
2021/03/28 16:43:10;;;;;;;;;;;;;;;;;;4917569;29;1238;-67
2021/03/28 16:45:43;;;;;;;;;;;;;;;;;;4918571;29;891;-67
2021/03/28 16:48:17;;;;;;;;;;;;;;;;;;4918560;29;1890;-67
2021/03/28 16:50:52;;;;;;;;;;;;;;;;;;4917571;29;1311;-66
2021/03/28 16:53:23;;;;;;;;;;;;;;;;;;4918704;29;814;-67
2021/03/28 16:55:50;;;;;;;;;;;;;;;;;;4918529;29;874;-67
2021/03/28 16:59:07;;;;;;;;;;;;;;;;;;4917486;29;902;-67
2021/03/28 17:01:26;;;;;;;;;;;;;;;;;;4917402;29;1307;-66
2021/03/28 17:03:57;;;;;;;;;;;;;;;;;;4918460;29;862;-66
2021/03/28 17:06:24;;;;;;;;;;;;;;;;;;4918247;29;1903;-67
2021/03/28 17:08:53;;;;;;;;;;;;;;;;;;4917290;29;1238;-67
2021/03/28 17:11:25;;;;;;;;;;;;;;;;;;4917165;29;1531;-67
2021/03/28 17:13:54;;;;;;;;;;;;;;;;;;4918199;29;812;-67
2021/03/28 17:16:21;;;;;;;;;;;;;;;;;;4918431;29;917;-67
2021/03/28 17:18:48;;;;;;;;;;;;;;;;;;4918371;29;989;-67
2021/03/28 17:21:19;;;;;;;;;;;;;;;;;;4918534;29;1315;-67
2021/03/28 17:24:02;;;;;;;;;;;;;;;;;;4917902;29;854;-67
2021/03/28 17:26:46;;;;;;;;;;;;;;;;;;4918329;29;1992;-67
2021/03/28 17:29:20;;;;;;;;;;;;;;;;;;4918335;29;914;-66
2021/03/28 17:31:47;;;;;;;;;;;;;;;;;;4916922;29;1502;-67
2021/03/28 17:34:14;;;;;;;;;;;;;;;;;;4916853;29;1214;-67
2021/03/28 17:36:48;;;;;;;;;;;;;;;;;;4918400;29;830;-66
2021/03/28 17:39:34;;;;;;;;;;;;;;;;;;4918231;29;846;-67
2021/03/28 17:42:00;;;;;;;;;;;;;;;;;;4916878;29;1315;-67
2021/03/28 17:44:25;;;;;;;;;;;;;;;;;;4917983;29;827;-67
2021/03/28 17:46:52;;;;;;;;;;;;;;;;;;4917828;29;1903;-67
2021/03/28 17:49:39;;;;;;;;;;;;;;;;;;4918177;29;890;-67
2021/03/28 17:52:18;;;;;;;;;;;;;;;;;;4917939;29;1431;-67
2021/03/28 17:55:06;;;;;;;;;;;;;;;;;;4918138;29;846;-67
2021/03/28 17:57:36;;;;;;;;;;;;;;;;;;4914619;29;1425;-67
2021/03/28 18:00:19;;;;;;;;;;;;;;;;;;4919857;29;1245;-67
2021/03/28 18:02:47;;;;;;;;;;;;;;;;;;4921635;29;1350;-67
2021/03/28 18:05:15;;;;;;;;;;;;;;;;;;4920246;29;1254;-67
2021/03/28 18:07:49;;;;;;;;;;;;;;;;;;4921567;29;1907;-66
2021/03/28 18:10:26;;;;;;;;;;;;;;;;;;4920133;29;839;-67
2021/03/28 18:13:06;;;;;;;;;;;;;;;;;;4921539;29;865;-68
2021/03/28 18:15:32;;;;;;;;;;;;;;;;;;4921522;29;882;-67
2021/03/28 18:17:58;;;;;;;;;;;;;;;;;;4920274;29;1200;-67
2021/03/28 18:20:26;;;;;;;;;;;;;;;;;;4921148;29;1206;-67
2021/03/28 18:22:52;;;;;;;;;;;;;;;;;;4920244;29;1351;-67
2021/03/28 18:25:35;;;;;;;;;;;;;;;;;;4921143;29;814;-67
2021/03/28 18:28:00;;;;;;;;;;;;;;;;;;4921420;29;1899;-67
2021/03/28 18:30:33;;;;;;;;;;;;;;;;;;4921373;29;858;-67
2021/03/28 18:33:13;;;;;;;;;;;;;;;;;;4921216;29;933;-67
2021/03/28 18:35:40;;;;;;;;;;;;;;;;;;4921023;29;827;-67
2021/03/28 18:38:25;;;;;;;;;;;;;;;;;;4920065;29;1413;-67
2021/03/28 18:40:54;;;;;;;;;;;;;;;;;;4919765;29;1422;-67
2021/03/28 18:43:19;;;;;;;;;;;;;;;;;;4920898;29;901;-66
2021/03/28 18:45:45;;;;;;;;;;;;;;;;;;4921057;29;929;-67
2021/03/28 18:48:27;;;;;;;;;;;;;;;;;;4920998;29;1907;-67
2021/03/28 18:50:59;;;;;;;;;;;;;;;;;;4920612;29;1437;-67
2021/03/28 18:53:24;;;;;;;;;;;;;;;;;;4919530;29;1254;-68
2021/03/28 18:55:51;;;;;;;;;;;;;;;;;;4919700;29;834;-67
2021/03/28 18:58:28;;;;;;;;;;;;;;;;;;4919802;29;1167;-68
2021/03/28 19:01:10;;;;;;;;;;;;;;;;;;4920401;29;1399;-67
2021/03/28 19:03:35;;;;;;;;;;;;;;;;;;4918825;29;1179;-68
2021/03/28 19:06:07;;;;;;;;;;;;;;;;;;4920595;29;921;-67
2021/03/28 19:08:43;;;;;;;;;;;;;;;;;;4919133;29;1902;-67
2021/03/28 19:11:15;;;;;;;;;;;;;;;;;;4920028;29;1319;-68
2021/03/28 19:13:40;;;;;;;;;;;;;;;;;;4918777;29;1193;-67
2021/03/28 19:16:16;;;;;;;;;;;;;;;;;;4919246;29;1316;-68
2021/03/28 19:18:41;;;;;;;;;;;;;;;;;;4920338;29;886;-67
2021/03/28 19:21:10;;;;;;;;;;;;;;;;;;4919115;29;1498;-67
2021/03/28 19:23:41;;;;;;;;;;;;;;;;;;4920081;29;846;-67
2021/03/28 19:26:17;;;;;;;;;;;;;;;;;;4920053;29;936;-68
2021/03/28 19:28:43;;;;;;;;;;;;;;;;;;4920113;29;1871;-67
2021/03/28 19:31:37;;;;;;;;;;;;;;;;;;4920131;29;1280;-67
2021/03/28 19:34:12;;;;;;;;;;;;;;;;;;4910351;29;1423;-67
2021/03/28 19:36:38;;;;;;;;;;;;;;;;;;4919893;29;1359;-68
2021/03/28 19:39:04;;;;;;;;;;;;;;;;;;4920007;29;845;-68
2021/03/28 19:41:35;;;;;;;;;;;;;;;;;;4919761;29;1335;-67
2021/03/28 19:44:04;;;;;;;;;;;;;;;;;;4919513;29;1012;-67
2021/03/28 19:48:59;;;;;;;;;;;;;;;;;;4919875;29;761;-67
2021/03/28 19:51:30;;;;;;;;;;;;;;;;;;4919897;29;1299;-67
2021/03/28 19:53:58;;;;;;;;;;;;;;;;;;4919572;29;1067;-66
2021/03/28 19:56:24;;;;;;;;;;;;;;;;;;4918591;29;855;-67
2021/03/28 19:58:51;;;;;;;;;;;;;;;;;;4918217;29;1199;-68
2021/03/28 20:01:17;;;;;;;;;;;;;;;;;;4935284;29;1383;-66
2021/03/28 20:03:48;;;;;;;;;;;;;;;;;;4937650;29;1139;-66
2021/03/28 20:06:13;;;;;;;;;;;;;;;;;;4938407;29;1227;-66
2021/03/28 20:08:40;;;;;;;;;;;;;;;;;;4936988;29;1898;-66
2021/03/28 20:11:16;;;;;;;;;;;;;;;;;;4946072;29;1497;-66
2021/03/28 20:13:46;;;;;;;;;;;;;;;;;;4955889;29;1255;-67
2021/03/28 20:16:13;;;;;;;;;;;;;;;;;;4949678;28;1379;-66
2021/03/28 20:18:39;;;;;;;;;;;;;;;;;;4954466;29;1207;-67
2021/03/28 20:21:05;;;;;;;;;;;;;;;;;;4955353;28;1573;-70
2021/03/28 20:23:30;;;;;;;;;;;;;;;;;;4955726;29;886;-67
2021/03/28 20:26:15;;;;;;;;;;;;;;;;;;4957322;28;895;-66
2021/03/28 20:28:59;;;;;;;;;;;;;;;;;;4954131;29;1965;-68
2021/03/28 20:31:24;;;;;;;;;;;;;;;;;;4937738;29;1343;-68
2021/03/28 20:33:58;;;;;;;;;;;;;;;;;;4937399;29;965;-68
2021/03/28 20:36:30;;;;;;;;;;;;;;;;;;4937410;29;834;-68
2021/03/28 20:38:56;;;;;;;;;;;;;;;;;;4937438;29;874;-69
2021/03/28 20:41:31;;;;;;;;;;;;;;;;;;4936043;29;1351;-69
2021/03/28 20:44:03;;;;;;;;;;;;;;;;;;4935847;29;1244;-67
2021/03/28 20:46:29;;;;;;;;;;;;;;;;;;4937131;29;1894;-68
2021/03/28 20:48:55;;;;;;;;;;;;;;;;;;4937194;29;980;-68
2021/03/28 20:51:26;;;;;;;;;;;;;;;;;;4936147;29;1468;-69
2021/03/28 20:53:57;;;;;;;;;;;;;;;;;;4937100;29;853;-69
2021/03/28 20:56:28;;;;;;;;;;;;;;;;;;4935674;29;894;-68
2021/03/28 20:58:53;;;;;;;;;;;;;;;;;;4935988;29;830;-68
2021/03/28 21:01:25;;;;;;;;;;;;;;;;;;4935645;29;1400;-69
2021/03/28 21:03:52;;;;;;;;;;;;;;;;;;4936830;29;1014;-69
2021/03/28 21:06:18;;;;;;;;;;;;;;;;;;4937228;29;893;-69
2021/03/28 21:08:44;;;;;;;;;;;;;;;;;;4936870;29;1968;-69
2021/03/28 21:11:10;;;;;;;;;;;;;;;;;;4935759;29;1513;-68
2021/03/28 21:13:36;;;;;;;;;;;;;;;;;;4936801;29;1194;-68
2021/03/28 21:16:02;;;;;;;;;;;;;;;;;;4935603;29;839;-67
2021/03/28 21:18:29;;;;;;;;;;;;;;;;;;4936845;29;965;-69
2021/03/28 21:20:55;;;;;;;;;;;;;;;;;;4935426;29;1434;-73
2021/03/28 21:23:21;;;;;;;;;;;;;;;;;;4935439;29;1378;-71
2021/03/28 21:25:50;;;;;;;;;;;;;;;;;;4936986;29;830;-71
2021/03/28 21:28:16;;;;;;;;;;;;;;;;;;4935424;29;1894;-72
2021/03/28 21:30:42;;;;;;;;;;;;;;;;;;4936508;29;1279;-70
2021/03/28 21:33:15;;;;;;;;;;;;;;;;;;4937147;29;1060;-71
2021/03/28 21:35:41;;;;;;;;;;;;;;;;;;4940777;29;930;-70
2021/03/28 21:38:06;;;;;;;;;;;;;;;;;;4940444;29;949;-71
2021/03/28 21:40:31;;;;;;;;;;;;;;;;;;4939251;29;1398;-70
2021/03/28 21:43:00;;;;;;;;;;;;;;;;;;4939641;29;1135;-72
2021/03/28 21:45:26;;;;;;;;;;;;;;;;;;4940351;29;834;-71
2021/03/28 21:47:51;;;;;;;;;;;;;;;;;;4940414;29;1898;-72
2021/03/28 21:50:17;;;;;;;;;;;;;;;;;;4940590;29;1036;-72
2021/03/28 21:52:43;;;;;;;;;;;;;;;;;;4940113;29;1331;-72
2021/03/28 21:55:28;;;;;;;;;;;;;;;;;;4938876;29;1390;-72
2021/03/28 21:58:05;;;;;;;;;;;;;;;;;;4938488;29;1692;-72
2021/03/28 22:00:33;;;;;;;;;;;;;;;;;;4940302;29;1353;-71
2021/03/28 22:03:12;;;;;;;;;;;;;;;;;;4940207;29;1062;-71
2021/03/28 22:05:37;;;;;;;;;;;;;;;;;;4940220;29;1054;-70
2021/03/28 22:08:10;;;;;;;;;;;;;;;;;;4938925;29;1907;-69
2021/03/28 22:10:40;;;;;;;;;;;;;;;;;;4938694;29;1689;-68
2021/03/28 22:13:05;;;;;;;;;;;;;;;;;;4938976;29;1190;-72
2021/03/28 22:15:31;;;;;;;;;;;;;;;;;;4938787;29;1172;-70
2021/03/28 22:17:59;;;;;;;;;;;;;;;;;;4939974;29;857;-68
2021/03/28 22:20:25;;;;;;;;;;;;;;;;;;4939956;29;811;-68
2021/03/28 22:22:50;;;;;;;;;;;;;;;;;;4944410;29;2138;-68
2021/03/28 22:25:17;;;;;;;;;;;;;;;;;;4958615;29;818;-67
2021/03/28 22:27:43;;;;;;;;;;;;;;;;;;4957811;29;1898;-68
2021/03/28 22:30:20;;;;;;;;;;;;;;;;;;4957690;29;1694;-71
2021/03/28 22:32:46;;;;;;;;;;;;;;;;;;4958973;29;1398;-70
2021/03/28 22:35:17;;;;;;;;;;;;;;;;;;4958630;29;1040;-69
2021/03/28 22:37:47;;;;;;;;;;;;;;;;;;4957291;29;1770;-70
2021/03/28 22:40:13;;;;;;;;;;;;;;;;;;4957809;29;1008;-70
2021/03/28 22:42:43;;;;;;;;;;;;;;;;;;4957328;29;1653;-70
2021/03/28 22:45:09;;;;;;;;;;;;;;;;;;4956143;28;1129;-71
2021/03/28 22:47:42;;;;;;;;;;;;;;;;;;4957094;29;1969;-70
2021/03/28 22:50:11;;;;;;;;;;;;;;;;;;4958395;29;905;-70
2021/03/28 22:52:37;;;;;;;;;;;;;;;;;;4957033;29;1470;-71
2021/03/28 22:55:03;;;;;;;;;;;;;;;;;;4958101;29;909;-71
2021/03/28 22:57:28;;;;;;;;;;;;;;;;;;4957015;29;1209;-72
2021/03/28 22:59:54;;;;;;;;;;;;;;;;;;4958229;29;802;-70
2021/03/28 23:02:20;;;;;;;;;;;;;;;;;;4956246;29;1466;-70
2021/03/28 23:04:47;;;;;;;;;;;;;;;;;;4957840;29;900;-71
2021/03/28 23:07:13;;;;;;;;;;;;;;;;;;4957876;29;1902;-71
2021/03/28 23:09:43;;;;;;;;;;;;;;;;;;4958001;29;806;-70
2021/03/28 23:12:09;;;;;;;;;;;;;;;;;;4956636;29;1414;-70
2021/03/28 23:14:34;;;;;;;;;;;;;;;;;;4957930;29;809;-71
2021/03/28 23:17:08;;;;;;;;;;;;;;;;;;4957691;29;906;-71
2021/03/28 23:19:42;;;;;;;;;;;;;;;;;;4956603;29;1433;-70
2021/03/28 23:22:07;;;;;;;;;;;;;;;;;;4957846;29;1422;-70
2021/03/28 23:24:35;;;;;;;;;;;;;;;;;;4957405;29;869;-70
2021/03/28 23:27:00;;;;;;;;;;;;;;;;;;4956358;29;1902;-70
2021/03/28 23:29:28;;;;;;;;;;;;;;;;;;4957728;29;913;-70
2021/03/28 23:31:54;;;;;;;;;;;;;;;;;;4957529;29;1414;-70
2021/03/28 23:34:19;;;;;;;;;;;;;;;;;;4957320;29;827;-70
2021/03/28 23:36:45;;;;;;;;;;;;;;;;;;4957564;29;878;-70
2021/03/28 23:39:10;;;;;;;;;;;;;;;;;;4957416;29;947;-70
2021/03/28 23:41:43;;;;;;;;;;;;;;;;;;4956095;29;1342;-70
2021/03/28 23:44:41;;;;;;;;;;;;;;;;;;4955896;29;1170;-71
2021/03/28 23:47:10;;;;;;;;;;;;;;;;;;4934961;29;1956;-69
2021/03/28 23:49:58;;;;;;;;;;;;;;;;;;4956068;29;1421;-71
2021/03/28 23:52:25;;;;;;;;;;;;;;;;;;4957330;29;1319;-69
2021/03/28 23:54:52;;;;;;;;;;;;;;;;;;4955866;29;1323;-70
2021/03/28 23:57:18;;;;;;;;;;;;;;;;;;4957253;28;813;-69
2021/03/28 23:59:44;;;;;;;;;;;;;;;;;;4955669;29;1346;-69
